SAST,Max TemperatureF,Mean TemperatureF,Min TemperatureF,Max Dew PointF,MeanDew PointF,Min DewpointF,Max Humidity, Mean Humidity, Min Humidity, Max Sea Level PressureIn, Mean Sea Level PressureIn, Min Sea Level PressureIn, Max VisibilityMiles, Mean VisibilityMiles, Min VisibilityMiles, Max Wind SpeedMPH, Mean Wind SpeedMPH, Max Gust SpeedMPH,PrecipitationIn, CloudCover, Events, WindDirDegrees
2012-3-1,82,70,59,64,60,54,100,77,50,29.98,29.90,29.86,6,6,6,13,4,,0.00,1,,278
2012-3-2,80,68,55,68,60,52,100,83,45,30.01,29.94,29.80,6,4,0,14,5,,0.00,4,Fog,59
2012-3-3,80,72,64,73,68,64,100,90,65,29.86,29.77,29.71,6,4,0,17,8,,0.00,4,Fog-Rain,236
2012-3-4,71,66,60,66,63,59,100,91,73,30.06,29.92,29.83,6,5,2,18,7,,0.00,6,Rain,281
2012-3-5,68,64,59,61,53,50,100,71,56,30.15,30.10,30.06,6,6,6,10,6,,0.00,6,,250
2012-3-6,73,63,53,64,56,48,94,78,56,30.15,30.05,29.95,6,6,6,18,6,,0.00,1,,60
2012-3-7,75,67,59,66,62,57,100,93,69,30.01,29.91,29.86,6,3,0,13,7,,0.00,4,Fog,276
2012-3-8,77,67,57,66,62,55,100,84,61,29.98,29.91,29.86,6,6,5,13,5,,0.00,4,,101
2012-3-9,78,73,68,70,67,64,100,86,65,30.12,30.00,29.92,6,6,4,14,7,,0.00,5,Rain,248
2012-3-10,77,72,66,68,66,63,100,84,65,30.24,30.17,30.12,6,6,4,16,9,,0.00,5,Rain,212
2012-3-11,78,72,64,66,65,63,94,82,61,30.24,30.11,29.98,6,6,4,23,14,,0.00,3,Rain,98
2012-3-12,89,74,59,66,58,52,100,65,29,29.98,29.86,29.80,6,6,6,12,4,,0.00,3,,229
2012-3-13,78,70,62,66,63,61,100,83,54,29.98,29.94,29.89,6,6,5,12,6,,0.00,3,,288
2012-3-14,82,72,62,70,65,61,100,86,48,29.98,29.93,29.86,6,3,0,12,4,,0.00,4,Fog,42
2012-3-15,80,70,60,70,66,59,100,85,61,29.92,29.86,29.83,6,6,3,12,6,,0.00,4,Fog-Rain,263
2012-3-16,73,66,60,68,66,61,100,95,65,29.92,29.90,29.83,6,5,1,18,7,,0.00,6,Fog-Rain,267
2012-3-17,69,63,57,61,54,46,100,79,43,30.09,30.00,29.92,6,6,4,20,15,,0.00,5,Rain,273
2012-3-18,75,63,51,54,49,41,82,63,37,30.09,30.04,29.98,6,6,6,10,7,,0.00,1,,315
2012-3-19,78,68,57,64,58,52,88,70,47,30.04,30.02,30.01,6,6,6,18,10,,0.00,5,,274
2012-3-20,75,67,59,66,64,59,100,84,65,30.06,29.98,29.89,6,6,4,15,7,,0.00,2,,91
2012-3-21,73,66,59,66,63,59,100,93,69,30.06,29.90,29.77,6,4,0,16,8,,0.00,5,Fog-Rain,265
2012-3-22,75,67,59,64,61,57,94,83,65,30.04,30.01,29.98,6,6,6,15,6,,0.00,4,,111
2012-3-23,71,66,60,66,64,61,100,94,78,30.15,30.04,29.98,6,6,4,18,6,,0.00,6,Rain,270
2012-3-24,68,66,64,66,64,61,100,94,83,30.15,30.11,30.01,6,6,3,26,14,41,0.00,5,Rain-Thunderstorm,96
2012-3-25,75,68,62,68,65,63,100,92,73,30.04,29.99,29.95,6,6,2,14,7,,0.00,6,Fog,268
2012-3-26,75,68,60,68,64,61,100,89,69,30.01,29.91,29.83,6,5,0,12,5,,0.00,3,Fog,75
2012-3-27,75,68,62,66,64,63,100,93,69,30.01,29.94,29.86,6,4,0,12,8,,0.00,7,Fog,241
2012-3-28,82,70,59,64,62,59,100,77,48,29.95,29.85,29.74,6,6,5,9,4,,0.00,2,,290
2012-3-29,73,68,64,64,62,59,100,83,69,29.86,29.77,29.68,6,6,6,12,6,,0.00,5,,260
2012-3-30,66,60,55,61,57,55,100,93,68,30.09,29.89,29.74,6,4,1,32,13,,0.00,6,Rain,256
2012-3-31,64,60,53,55,52,46,94,75,52,30.24,30.21,30.18,6,6,6,13,8,,0.00,4,,260